createdAt,value
2022-10-15T00:01:36.682Z,69.45
2022-10-15T00:04:03.011Z,66.45
2022-10-15T00:06:29.285Z,66.60
2022-10-15T00:08:55.726Z,68.63
2022-10-15T00:11:22.232Z,71.13
2022-10-15T00:13:48.487Z,71.05
2022-10-15T00:16:14.746Z,70.43
2022-10-15T00:18:40.999Z,73.43
2022-10-15T00:21:07.648Z,70.75
2022-10-15T00:23:33.910Z,67.50
2022-10-15T00:26:00.180Z,72.20
2022-10-15T00:28:29.483Z,74.28
2022-10-15T00:30:58.303Z,72.30
2022-10-15T00:33:24.619Z,67.88
2022-10-15T00:35:50.888Z,70.93
2022-10-15T00:38:17.146Z,74.38
2022-10-15T00:40:43.403Z,68.80
2022-10-15T00:43:09.656Z,68.53
2022-10-15T00:45:37.525Z,72.72
2022-10-15T00:48:03.764Z,73.65
2022-10-15T00:50:30.020Z,76.55
2022-10-15T00:52:56.275Z,65.15
2022-10-15T00:55:22.541Z,59.60
2022-10-15T00:57:48.811Z,62.28
2022-10-15T01:00:15.293Z,60.00
2022-10-15T01:02:41.598Z,65.70
2022-10-15T01:05:07.847Z,63.08
2022-10-15T01:07:34.100Z,63.15
2022-10-15T01:10:00.378Z,71.32
2022-10-15T01:12:26.631Z,68.85
2022-10-15T01:14:52.896Z,70.30
2022-10-15T01:17:19.185Z,84.43
2022-10-15T01:19:45.434Z,77.93
2022-10-15T01:22:11.694Z,124.22
2022-10-15T01:24:37.962Z,129.45
2022-10-15T01:27:04.248Z,145.75
2022-10-15T01:29:30.523Z,139.85
2022-10-15T01:31:56.782Z,111.95
2022-10-15T01:34:23.043Z,103.60
2022-10-15T01:36:49.311Z,103.63
2022-10-15T01:39:15.619Z,114.72
2022-10-15T01:41:41.879Z,108.90
2022-10-15T01:44:08.148Z,113.10
2022-10-15T01:46:34.400Z,121.40
2022-10-15T01:49:00.687Z,129.80
2022-10-15T01:51:26.942Z,118.97
2022-10-15T01:53:53.228Z,115.85
2022-10-15T01:56:19.485Z,109.35
2022-10-15T01:58:45.730Z,109.45
2022-10-15T02:01:12.000Z,101.00
2022-10-15T02:03:38.311Z,112.40
2022-10-15T02:06:04.582Z,113.57
2022-10-15T02:08:30.847Z,108.47
2022-10-15T02:10:57.112Z,102.07
2022-10-15T02:13:23.389Z,116.68
2022-10-15T02:15:49.636Z,99.65
2022-10-15T02:18:15.910Z,97.45
2022-10-15T02:20:42.168Z,98.85
2022-10-15T02:23:08.434Z,96.05
2022-10-15T02:25:35.121Z,100.45
2022-10-15T02:28:01.400Z,96.90
2022-10-15T02:30:27.659Z,102.70
2022-10-15T02:32:54.067Z,123.30
2022-10-15T02:35:20.315Z,115.07
2022-10-15T02:37:46.582Z,127.15
2022-10-15T02:40:12.919Z,131.05
2022-10-15T02:42:39.175Z,134.88
2022-10-15T02:45:05.432Z,135.57
2022-10-15T02:47:31.769Z,137.43
2022-10-15T02:49:58.022Z,125.75
2022-10-15T02:52:24.551Z,121.72
2022-10-15T02:54:51.071Z,116.43
2022-10-15T02:57:17.380Z,127.20
2022-10-15T02:59:43.664Z,138.57
2022-10-15T03:02:11.309Z,134.10
2022-10-15T03:04:39.235Z,136.07
2022-10-15T03:07:05.532Z,116.63
2022-10-15T03:09:31.796Z,120.00
2022-10-15T03:11:58.074Z,99.97
2022-10-15T03:14:24.392Z,106.55
2022-10-15T03:16:50.724Z,110.97
2022-10-15T03:19:17.050Z,142.40
2022-10-15T03:21:43.302Z,139.20
2022-10-15T03:24:09.630Z,145.30
2022-10-15T03:26:35.897Z,138.50
2022-10-15T03:29:02.322Z,118.88
2022-10-15T03:31:28.592Z,108.22
2022-10-15T03:33:54.864Z,99.18
2022-10-15T03:36:21.124Z,117.72
2022-10-15T03:38:47.378Z,124.93
2022-10-15T03:41:13.627Z,119.10
2022-10-15T03:43:42.633Z,121.72
2022-10-15T03:46:09.386Z,122.75
2022-10-15T03:48:35.648Z,102.38
2022-10-15T03:51:01.909Z,102.85
2022-10-15T03:53:28.223Z,98.35
2022-10-15T03:55:54.504Z,103.50
2022-10-15T03:58:20.773Z,107.47
2022-10-15T04:00:47.081Z,117.75
2022-10-15T04:03:13.380Z,113.07
2022-10-15T04:05:39.639Z,98.75
2022-10-15T04:08:05.912Z,110.00
2022-10-15T04:10:32.177Z,123.18
2022-10-15T04:12:58.447Z,155.75
2022-10-15T04:15:24.692Z,152.27
2022-10-15T04:20:23.531Z,128.13
2022-10-15T04:22:49.782Z,123.40
2022-10-15T04:25:16.623Z,95.50
2022-10-15T04:27:42.901Z,95.80
2022-10-15T04:30:09.733Z,109.45
2022-10-15T04:32:36.004Z,107.85
2022-10-15T04:35:02.281Z,112.53
2022-10-15T04:37:28.536Z,99.60
2022-10-15T04:39:54.804Z,97.35
2022-10-15T04:42:21.085Z,106.80
2022-10-15T04:44:47.350Z,107.70
2022-10-15T04:47:13.856Z,92.22
2022-10-15T04:49:40.134Z,151.90
2022-10-15T04:52:06.389Z,113.10
2022-10-15T04:54:32.670Z,107.93
2022-10-15T04:56:59.096Z,123.85
2022-10-15T04:59:25.375Z,118.80
2022-10-15T05:01:51.795Z,115.00
2022-10-15T05:04:18.087Z,111.05
2022-10-15T05:06:44.468Z,107.47
2022-10-15T05:09:10.726Z,110.15
2022-10-15T05:11:38.030Z,110.88
2022-10-15T05:14:04.292Z,117.20
2022-10-15T05:16:30.640Z,110.38
2022-10-15T05:18:56.930Z,110.85
2022-10-15T05:21:23.198Z,108.30
2022-10-15T05:23:50.117Z,116.68
2022-10-15T05:26:16.467Z,118.55
2022-10-15T05:28:42.869Z,108.55
2022-10-15T05:31:09.163Z,108.88
2022-10-15T05:33:35.436Z,108.88
2022-10-15T05:36:01.699Z,96.75
2022-10-15T05:38:27.947Z,103.30
2022-10-15T05:40:54.221Z,105.68
2022-10-15T05:43:20.470Z,114.07
2022-10-15T05:45:46.846Z,107.30
2022-10-15T05:48:13.528Z,105.85
2022-10-15T05:50:39.775Z,107.13
2022-10-15T05:53:06.092Z,103.47
2022-10-15T05:55:32.351Z,100.30
2022-10-15T05:57:58.602Z,101.22
2022-10-15T06:00:24.877Z,108.78
2022-10-15T06:02:51.726Z,111.35
2022-10-15T06:05:18.010Z,105.90
2022-10-15T06:07:44.272Z,111.57
2022-10-15T06:10:10.522Z,124.10
2022-10-15T06:12:39.217Z,131.23
2022-10-15T06:15:05.506Z,122.25
2022-10-15T06:17:31.768Z,110.28
2022-10-15T06:19:58.089Z,104.00
2022-10-15T06:22:24.377Z,107.88
2022-10-15T06:24:50.737Z,110.13
2022-10-15T06:27:17.005Z,114.20
2022-10-15T06:29:43.270Z,112.32
2022-10-15T06:32:09.541Z,112.55
2022-10-15T06:34:35.834Z,107.32
2022-10-15T06:37:02.103Z,114.85
2022-10-15T06:39:28.354Z,141.43
2022-10-15T06:41:54.602Z,148.45
2022-10-15T06:44:20.881Z,109.68
2022-10-15T06:46:47.134Z,113.13
2022-10-15T06:49:13.474Z,138.75
2022-10-15T06:51:39.743Z,137.07
2022-10-15T06:54:06.042Z,109.53
2022-10-15T06:56:32.323Z,119.50
2022-10-15T06:58:58.595Z,120.63
2022-10-15T07:01:24.867Z,149.65
2022-10-15T07:03:51.123Z,157.85
2022-10-15T07:06:17.402Z,132.00
2022-10-15T07:08:44.838Z,118.88
2022-10-15T07:11:11.153Z,129.40
2022-10-15T07:13:37.466Z,134.15
2022-10-15T07:16:03.736Z,154.45
2022-10-15T07:18:29.995Z,177.50
2022-10-15T07:20:56.356Z,196.73
2022-10-15T07:23:25.515Z,169.48
2022-10-15T07:25:54.063Z,128.68
2022-10-15T07:28:20.362Z,153.15
2022-10-15T07:30:46.676Z,157.45
2022-10-15T07:33:13.071Z,144.10
2022-10-15T07:35:39.333Z,179.13
2022-10-15T07:38:05.638Z,197.27
2022-10-15T07:40:31.892Z,201.27
2022-10-15T07:42:58.159Z,141.77
2022-10-15T07:45:24.468Z,118.82
2022-10-15T07:47:50.795Z,121.22
2022-10-15T07:50:17.064Z,94.47
2022-10-15T07:52:43.310Z,93.53
2022-10-15T07:55:09.581Z,113.20
2022-10-15T07:57:35.854Z,171.98
2022-10-15T08:00:02.118Z,99.47
2022-10-15T08:02:28.392Z,115.15
2022-10-15T08:04:54.675Z,127.38
2022-10-15T08:07:20.937Z,96.90
2022-10-15T08:12:13.492Z,255.40
2022-10-15T08:14:40.396Z,263.15
2022-10-15T08:17:06.651Z,117.70
2022-10-15T08:19:33.054Z,117.47
2022-10-15T08:21:59.705Z,169.48
2022-10-15T08:24:25.955Z,126.75
2022-10-15T08:26:52.276Z,87.60
2022-10-15T08:29:18.560Z,90.25
2022-10-15T08:31:44.802Z,112.93
2022-10-15T08:34:11.118Z,165.45
2022-10-15T08:36:37.371Z,179.02
2022-10-15T08:39:03.718Z,207.30
2022-10-15T08:41:30.236Z,199.02
2022-10-15T08:43:56.503Z,164.23
2022-10-15T08:46:22.776Z,166.07
2022-10-15T08:48:49.405Z,210.50
2022-10-15T08:51:15.646Z,181.23
2022-10-15T08:53:41.956Z,178.23
2022-10-15T08:56:08.207Z,169.85
2022-10-15T08:58:38.201Z,154.55
2022-10-15T09:01:06.732Z,187.68
2022-10-15T09:03:33.031Z,193.05
2022-10-15T09:05:59.296Z,181.30
2022-10-15T09:08:25.560Z,188.85
2022-10-15T09:10:51.830Z,229.13
2022-10-15T09:13:18.083Z,160.65
2022-10-15T09:15:44.350Z,173.68
2022-10-15T09:18:10.610Z,159.52
2022-10-15T09:20:36.923Z,148.20
2022-10-15T09:23:03.198Z,175.30
2022-10-15T09:25:31.911Z,182.32
2022-10-15T09:27:58.430Z,228.20
2022-10-15T09:30:24.755Z,173.13
2022-10-15T09:32:54.216Z,208.90
2022-10-15T09:35:21.303Z,205.07
2022-10-15T09:37:47.550Z,103.32
2022-10-15T09:40:13.808Z,78.63
2022-10-15T09:42:40.341Z,77.43
2022-10-15T09:45:06.603Z,76.15
2022-10-15T09:47:32.856Z,78.03
2022-10-15T09:49:59.896Z,76.75
2022-10-15T09:52:26.539Z,84.03
2022-10-15T09:54:53.044Z,123.75
2022-10-15T09:57:19.304Z,117.72
2022-10-15T09:59:45.567Z,104.72
2022-10-15T10:02:11.960Z,106.13
2022-10-15T10:04:38.423Z,121.65
2022-10-15T10:07:04.736Z,153.70
2022-10-15T10:09:31.767Z,114.70
2022-10-15T10:11:57.966Z,86.83
2022-10-15T10:14:24.244Z,166.50
2022-10-15T10:16:50.549Z,391.73
2022-10-15T10:19:16.815Z,233.23
2022-10-15T10:21:43.138Z,99.95
2022-10-15T10:24:09.457Z,119.65
2022-10-15T10:26:36.005Z,122.45
2022-10-15T10:29:09.895Z,90.45
2022-10-15T10:31:43.718Z,87.70
2022-10-15T10:34:09.995Z,82.07
2022-10-15T10:36:39.382Z,79.72
2022-10-15T10:39:08.331Z,79.93
2022-10-15T10:41:34.594Z,83.95
2022-10-15T10:44:00.860Z,102.43
2022-10-15T10:46:27.131Z,201.75
2022-10-15T10:48:53.517Z,208.65
2022-10-15T10:51:19.832Z,138.60
2022-10-15T10:53:46.090Z,179.07
2022-10-15T10:56:13.646Z,176.00
2022-10-15T10:58:39.939Z,146.05
2022-10-15T11:01:06.265Z,154.55
2022-10-15T11:03:32.685Z,107.47
2022-10-15T11:05:59.059Z,96.50
2022-10-15T11:08:25.315Z,107.28
2022-10-15T11:10:51.594Z,100.60
2022-10-15T11:13:17.847Z,112.72
2022-10-15T11:15:44.098Z,103.65
2022-10-15T11:18:10.362Z,101.40
2022-10-15T11:20:53.186Z,111.32
2022-10-15T11:23:26.458Z,107.38
2022-10-15T11:25:53.661Z,103.85
2022-10-15T11:28:19.995Z,97.05
2022-10-15T11:30:46.323Z,98.10
2022-10-15T11:33:13.088Z,115.60
2022-10-15T11:35:54.439Z,154.93
2022-10-15T11:38:21.004Z,109.22
2022-10-15T11:40:47.299Z,120.63
2022-10-15T11:43:13.608Z,119.13
2022-10-15T11:45:39.917Z,142.55
2022-10-15T11:48:06.197Z,207.25
2022-10-15T11:50:32.455Z,276.88
2022-10-15T11:52:58.714Z,170.57
2022-10-15T11:55:24.970Z,135.80
2022-10-15T11:57:51.244Z,175.52
2022-10-15T12:00:17.648Z,174.98
2022-10-15T12:02:43.913Z,230.02
2022-10-15T12:05:10.195Z,182.80
2022-10-15T12:07:36.451Z,164.38
2022-10-15T12:10:02.706Z,194.20
2022-10-15T12:12:28.964Z,440.83
2022-10-15T12:14:55.241Z,999.90
2022-10-15T12:17:21.496Z,999.90
2022-10-15T12:19:47.778Z,999.90
2022-10-15T12:22:14.099Z,999.90
2022-10-15T12:24:51.607Z,999.90
2022-10-15T12:27:17.902Z,999.90
2022-10-15T12:29:44.156Z,999.90
2022-10-15T12:32:10.445Z,999.90
2022-10-15T12:34:36.711Z,999.90
2022-10-15T12:37:03.309Z,999.90
2022-10-15T12:42:15.864Z,999.90
2022-10-15T12:44:42.116Z,999.90
2022-10-15T12:47:08.389Z,163.77
2022-10-15T12:49:34.651Z,137.27
2022-10-15T12:52:00.906Z,136.15
2022-10-15T12:54:27.184Z,135.95
2022-10-15T12:56:53.444Z,155.45
2022-10-15T12:59:19.831Z,135.57
2022-10-15T13:01:46.109Z,131.18
2022-10-15T13:04:12.513Z,121.25
2022-10-15T13:06:40.097Z,106.03
2022-10-15T13:09:06.405Z,132.52
2022-10-15T13:11:32.686Z,98.60
2022-10-15T13:13:58.965Z,999.90
2022-10-15T13:16:25.270Z,999.90
2022-10-15T13:18:51.605Z,999.90
2022-10-15T13:21:17.920Z,999.90
2022-10-15T13:23:44.167Z,999.90
2022-10-15T13:26:11.110Z,999.90
2022-10-15T13:28:38.060Z,999.90
2022-10-15T13:31:04.475Z,999.90
2022-10-15T13:33:30.779Z,999.90
2022-10-15T13:35:57.102Z,999.90
2022-10-15T13:38:23.427Z,999.90
2022-10-15T13:40:49.687Z,999.90
2022-10-15T13:43:15.941Z,999.90
2022-10-15T13:45:42.213Z,999.90
2022-10-15T13:48:08.484Z,999.90
2022-10-15T13:50:34.814Z,999.90
2022-10-15T13:53:01.073Z,999.90
2022-10-15T13:55:28.366Z,999.90
2022-10-15T13:57:57.007Z,999.90
2022-10-15T14:00:23.409Z,999.90
2022-10-15T14:02:50.224Z,999.90
2022-10-15T14:05:16.899Z,999.90
2022-10-15T14:07:43.250Z,999.90
2022-10-15T14:10:09.542Z,999.90
2022-10-15T14:12:35.915Z,999.90
2022-10-15T14:15:02.172Z,999.90
2022-10-15T14:17:28.675Z,999.90
2022-10-15T14:20:21.687Z,999.90
2022-10-15T14:22:41.244Z,999.90
2022-10-15T14:25:10.543Z,999.90
2022-10-15T14:30:44.310Z,999.90
2022-10-15T14:33:10.571Z,999.90
2022-10-15T14:35:36.959Z,999.90
2022-10-15T14:38:03.260Z,999.90
2022-10-15T14:40:29.554Z,999.90
2022-10-15T14:42:55.811Z,999.90
2022-10-15T14:45:22.127Z,999.90
2022-10-15T14:47:48.498Z,999.90
2022-10-15T14:50:15.022Z,999.90
2022-10-15T14:52:41.297Z,999.90
2022-10-15T14:55:09.478Z,999.90
2022-10-15T14:57:38.145Z,999.90
2022-10-15T15:00:04.446Z,999.90
2022-10-15T15:02:30.710Z,999.90
2022-10-15T15:04:56.980Z,999.90
2022-10-15T15:07:23.321Z,999.90
2022-10-15T15:09:49.650Z,999.90
2022-10-15T15:12:16.269Z,999.90
2022-10-15T15:14:42.572Z,999.90
2022-10-15T15:17:09.037Z,999.90
2022-10-15T15:19:36.692Z,999.90
2022-10-15T15:22:04.845Z,999.90
2022-10-15T15:24:31.111Z,999.90
2022-10-15T15:26:57.396Z,999.90
2022-10-15T15:29:23.718Z,999.90
2022-10-15T15:31:50.056Z,999.90
2022-10-15T15:34:16.354Z,999.90
2022-10-15T15:36:42.625Z,999.90
2022-10-15T15:39:08.914Z,999.90
2022-10-15T15:41:35.212Z,999.90
2022-10-15T15:44:01.724Z,999.90
2022-10-15T15:46:27.982Z,999.90
2022-10-15T15:48:54.275Z,999.90
2022-10-15T15:51:20.947Z,999.90
2022-10-15T15:53:47.404Z,999.90
2022-10-15T15:56:13.675Z,999.90
2022-10-15T15:58:39.949Z,999.90
2022-10-15T16:01:06.214Z,999.90
2022-10-15T16:03:32.475Z,641.63
2022-10-15T16:05:58.800Z,134.10
2022-10-15T16:08:25.090Z,207.23
2022-10-15T16:10:51.350Z,222.20
2022-10-15T16:13:17.633Z,334.88
2022-10-15T16:15:43.908Z,249.68
2022-10-15T16:18:10.706Z,188.90
2022-10-15T16:20:39.497Z,170.85
2022-10-15T16:23:05.758Z,316.48
2022-10-15T16:25:32.031Z,389.63
2022-10-15T16:28:01.638Z,320.05
2022-10-15T16:30:27.946Z,155.10
2022-10-15T16:32:54.269Z,119.50
2022-10-15T16:35:20.756Z,136.02
2022-10-15T16:37:47.662Z,176.30
2022-10-15T16:40:14.854Z,182.25
2022-10-15T16:42:41.160Z,117.80
2022-10-15T16:45:07.459Z,112.00
2022-10-15T16:47:33.735Z,111.68
2022-10-15T16:50:00.232Z,111.80
2022-10-15T16:52:26.786Z,107.57
2022-10-15T16:54:53.431Z,100.18
2022-10-15T16:57:19.689Z,101.43
2022-10-15T16:59:45.958Z,95.88
2022-10-15T17:02:12.225Z,156.27
2022-10-15T17:04:38.475Z,354.20
2022-10-15T17:07:04.826Z,286.75
2022-10-15T17:09:31.084Z,161.85
2022-10-15T17:11:57.360Z,255.75
2022-10-15T17:14:23.624Z,291.90
2022-10-15T17:16:49.937Z,316.77
2022-10-15T17:19:16.221Z,326.75
2022-10-15T17:21:43.730Z,335.65
2022-10-15T17:24:12.589Z,317.27
2022-10-15T17:26:40.339Z,238.00
2022-10-15T17:29:06.618Z,188.93
2022-10-15T17:31:32.888Z,201.05
2022-10-15T17:33:59.243Z,257.42
2022-10-15T17:36:25.498Z,190.13
2022-10-15T17:38:51.800Z,116.90
2022-10-15T17:41:18.087Z,128.05
2022-10-15T17:43:44.351Z,193.95
2022-10-15T17:46:10.667Z,253.93
2022-10-15T17:48:38.154Z,278.23
2022-10-15T17:51:04.424Z,246.68
2022-10-15T17:53:30.679Z,217.50
2022-10-15T17:55:56.983Z,109.85
2022-10-15T17:58:23.265Z,93.72
2022-10-15T18:00:49.523Z,83.15
2022-10-15T18:03:15.780Z,129.75
2022-10-15T18:05:43.236Z,107.00
2022-10-15T18:08:10.048Z,99.57
2022-10-15T18:10:36.308Z,94.18
2022-10-15T18:13:02.566Z,94.93
2022-10-15T18:15:29.766Z,93.55
2022-10-15T18:17:56.512Z,83.05
2022-10-15T18:20:24.074Z,86.97
2022-10-15T18:22:50.347Z,84.15
2022-10-15T18:25:16.603Z,78.00
2022-10-15T18:27:42.850Z,82.85
2022-10-15T18:30:09.136Z,81.07
2022-10-15T18:35:06.648Z,159.45
2022-10-15T18:37:32.965Z,128.20
2022-10-15T18:39:59.414Z,185.95
2022-10-15T18:42:25.945Z,164.23
2022-10-15T18:44:55.475Z,204.68
2022-10-15T18:47:21.758Z,243.35
2022-10-15T18:49:48.038Z,140.40
2022-10-15T18:52:21.670Z,177.02
2022-10-15T18:54:54.545Z,212.07
2022-10-15T18:57:20.823Z,174.35
2022-10-15T18:59:47.487Z,135.18
2022-10-15T19:02:13.819Z,97.80
2022-10-15T19:04:40.118Z,130.77
2022-10-15T19:07:06.383Z,196.98
2022-10-15T19:09:32.720Z,229.27
2022-10-15T19:11:58.974Z,238.00
2022-10-15T19:14:25.252Z,169.85
2022-10-15T19:16:51.534Z,159.32
2022-10-15T19:19:17.883Z,142.13
2022-10-15T19:21:44.179Z,194.13
2022-10-15T19:24:10.438Z,159.02
2022-10-15T19:26:36.739Z,186.63
2022-10-15T19:29:03.082Z,197.02
2022-10-15T19:31:29.449Z,180.98
2022-10-15T19:33:55.758Z,136.43
2022-10-15T19:36:22.190Z,169.68
2022-10-15T19:38:48.447Z,99.47
2022-10-15T19:41:14.716Z,97.78
2022-10-15T19:43:40.972Z,156.30
2022-10-15T19:46:07.243Z,225.55
2022-10-15T19:48:33.508Z,248.73
2022-10-15T19:50:59.767Z,183.15
2022-10-15T19:53:26.030Z,127.63
2022-10-15T19:55:52.299Z,100.63
2022-10-15T19:58:18.555Z,117.10
2022-10-15T20:00:48.161Z,110.32
2022-10-15T20:03:14.409Z,141.88
2022-10-15T20:05:40.658Z,202.50
2022-10-15T20:08:08.302Z,224.13
2022-10-15T20:10:34.571Z,88.10
2022-10-15T20:13:00.818Z,228.30
2022-10-15T20:15:27.066Z,128.23
2022-10-15T20:17:53.341Z,131.80
2022-10-15T20:20:19.595Z,116.32
2022-10-15T20:22:45.854Z,109.38
2022-10-15T20:25:12.110Z,108.53
2022-10-15T20:27:38.358Z,117.88
2022-10-15T20:30:04.610Z,106.47
2022-10-15T20:32:34.715Z,117.68
2022-10-15T20:35:01.635Z,117.40
2022-10-15T20:37:27.898Z,121.18
2022-10-15T20:39:54.236Z,127.43
2022-10-15T20:42:20.580Z,122.40
2022-10-15T20:44:46.826Z,122.88
2022-10-15T20:47:13.079Z,113.75
2022-10-15T20:49:40.065Z,124.20
2022-10-15T20:52:06.332Z,102.85
2022-10-15T20:54:32.611Z,106.32
2022-10-15T20:56:58.908Z,114.68
2022-10-15T20:59:27.894Z,115.22
2022-10-15T21:01:56.560Z,114.90
2022-10-15T21:04:22.855Z,126.97
2022-10-15T21:06:49.131Z,145.88
2022-10-15T21:09:15.400Z,141.13
2022-10-15T21:11:41.841Z,180.57
2022-10-15T21:14:08.096Z,182.00
2022-10-15T21:16:34.382Z,187.35
2022-10-15T21:19:02.444Z,174.40
2022-10-15T21:23:55.240Z,134.45
2022-10-15T21:26:21.497Z,137.35
2022-10-15T21:28:47.865Z,133.70
2022-10-15T21:31:14.198Z,161.07
2022-10-15T21:33:40.462Z,148.38
2022-10-15T21:36:06.737Z,140.15
2022-10-15T21:38:32.983Z,141.57
2022-10-15T21:40:59.298Z,138.50
2022-10-15T21:43:25.547Z,140.13
2022-10-15T21:45:51.808Z,139.98
2022-10-15T21:48:18.079Z,163.20
2022-10-15T21:50:44.339Z,167.90
2022-10-15T21:53:10.591Z,181.48
2022-10-15T21:55:36.836Z,185.88
2022-10-15T21:58:03.108Z,152.80
2022-10-15T22:00:29.358Z,137.77
2022-10-15T22:02:55.632Z,138.75
2022-10-15T22:05:21.900Z,137.52
2022-10-15T22:07:48.177Z,145.15
2022-10-15T22:10:14.439Z,147.57
2022-10-15T22:12:40.742Z,143.63
2022-10-15T22:15:07.013Z,167.52
2022-10-15T22:17:33.276Z,151.45
2022-10-15T22:19:59.540Z,178.57
2022-10-15T22:22:26.006Z,183.38
2022-10-15T22:24:52.527Z,196.15
2022-10-15T22:27:18.824Z,191.65
2022-10-15T22:29:45.192Z,182.30
2022-10-15T22:32:11.497Z,151.07
2022-10-15T22:34:37.766Z,158.98
2022-10-15T22:37:04.026Z,159.73
2022-10-15T22:39:30.292Z,149.77
2022-10-15T22:41:56.564Z,152.07
2022-10-15T22:44:22.903Z,141.05
2022-10-15T22:46:49.658Z,131.15
2022-10-15T22:49:16.283Z,103.82
2022-10-15T22:51:42.543Z,110.25
2022-10-15T22:54:08.822Z,135.02
2022-10-15T22:56:35.105Z,145.57
2022-10-15T22:59:01.448Z,135.43
2022-10-15T23:01:27.803Z,151.43
2022-10-15T23:03:54.111Z,199.68
2022-10-15T23:06:20.375Z,180.80
2022-10-15T23:08:47.278Z,235.57
2022-10-15T23:11:13.536Z,224.48
2022-10-15T23:13:39.816Z,157.25
2022-10-15T23:16:06.219Z,126.78
2022-10-15T23:18:32.477Z,152.70
2022-10-15T23:20:58.743Z,242.43
2022-10-15T23:23:25.382Z,200.75
2022-10-15T23:25:51.665Z,150.52
2022-10-15T23:28:18.079Z,150.52
2022-10-15T23:30:44.401Z,133.70
2022-10-15T23:33:10.665Z,135.43
2022-10-15T23:38:08.088Z,161.45
2022-10-15T23:40:34.359Z,213.07
2022-10-15T23:43:00.664Z,209.50
2022-10-15T23:45:27.042Z,203.23
2022-10-15T23:47:53.304Z,187.55
2022-10-15T23:50:19.563Z,164.27
2022-10-15T23:52:45.818Z,158.23
2022-10-15T23:55:12.082Z,147.18
2022-10-15T23:57:38.334Z,137.45
